createdAt,value
2023-02-24T00:03:53.323Z,18.40
2023-02-24T00:07:56.480Z,17.83
2023-02-24T00:12:03.314Z,17.65
2023-02-24T00:16:07.238Z,18.38
2023-02-24T00:20:12.546Z,18.25
2023-02-24T00:24:15.597Z,18.48
2023-02-24T00:28:21.502Z,17.15
2023-02-24T00:32:24.754Z,19.35
2023-02-24T00:36:29.789Z,18.38
2023-02-24T00:40:37.186Z,18.80
2023-02-24T00:44:45.162Z,17.88
2023-02-24T00:48:49.286Z,18.50
2023-02-24T00:52:52.357Z,17.42
2023-02-24T00:56:57.088Z,16.48
2023-02-24T01:01:02.351Z,18.02
2023-02-24T01:05:06.171Z,20.17
2023-02-24T01:09:12.141Z,17.23
2023-02-24T01:13:15.125Z,20.08
2023-02-24T01:17:21.064Z,17.77
2023-02-24T01:21:25.150Z,18.08
2023-02-24T01:25:31.440Z,17.45
2023-02-24T01:29:39.274Z,17.25
2023-02-24T01:33:45.919Z,18.30
2023-02-24T01:37:49.292Z,19.25
2023-02-24T01:41:53.175Z,23.48
2023-02-24T01:45:57.716Z,18.17
2023-02-24T01:50:03.136Z,18.85
2023-02-24T01:54:10.029Z,16.38
2023-02-24T01:58:18.552Z,18.73
2023-02-24T02:02:23.944Z,19.98
2023-02-24T02:06:29.670Z,19.35
2023-02-24T02:10:33.955Z,20.42
2023-02-24T02:14:53.587Z,17.15
2023-02-24T02:19:07.668Z,17.33
2023-02-24T02:23:36.978Z,19.73
2023-02-24T02:28:12.908Z,20.30
2023-02-24T02:32:42.003Z,23.25
2023-02-24T02:36:59.149Z,19.45
2023-02-24T02:41:09.696Z,16.75
2023-02-24T02:45:19.008Z,17.42
2023-02-24T02:49:25.552Z,18.23
2023-02-24T02:53:37.482Z,18.15
2023-02-24T02:57:47.236Z,19.45
2023-02-24T03:01:55.505Z,20.88
2023-02-24T03:06:06.274Z,20.08
2023-02-24T03:10:20.855Z,19.50
2023-02-24T03:14:29.407Z,16.85
2023-02-24T03:18:34.567Z,18.48
2023-02-24T03:22:43.795Z,17.30
2023-02-24T03:26:53.478Z,16.55
2023-02-24T03:31:04.892Z,13.95
2023-02-24T03:35:15.134Z,18.27
2023-02-24T03:39:18.813Z,15.85
2023-02-24T03:43:40.369Z,18.35
2023-02-24T03:47:46.832Z,19.85
2023-02-24T03:51:59.717Z,15.90
2023-02-24T03:56:15.962Z,14.85
2023-02-24T04:00:34.338Z,18.90
2023-02-24T04:04:45.757Z,17.85
2023-02-24T04:09:13.197Z,16.48
2023-02-24T04:13:35.476Z,16.55
2023-02-24T04:17:50.149Z,17.50
2023-02-24T04:21:55.743Z,17.60
2023-02-24T04:26:03.101Z,17.77
2023-02-24T04:30:10.740Z,18.25
2023-02-24T04:34:20.035Z,17.40
2023-02-24T04:38:24.288Z,16.95
2023-02-24T04:42:27.989Z,21.35
2023-02-24T04:46:33.033Z,22.83
2023-02-24T04:50:38.390Z,18.77
2023-02-24T04:54:41.522Z,19.85
2023-02-24T04:58:46.398Z,21.35
2023-02-24T05:02:50.535Z,20.30
2023-02-24T05:06:57.395Z,22.25
2023-02-24T05:11:04.006Z,21.23
2023-02-24T05:15:09.071Z,23.25
2023-02-24T05:19:29.914Z,21.45
2023-02-24T05:23:36.428Z,18.27
2023-02-24T05:27:39.514Z,21.67
2023-02-24T05:31:42.752Z,20.83
2023-02-24T05:35:45.905Z,19.67
2023-02-24T05:39:50.387Z,17.92
2023-02-24T05:43:56.819Z,21.77
2023-02-24T05:47:59.816Z,20.67
2023-02-24T05:52:07.868Z,22.25
2023-02-24T05:56:12.888Z,24.38
2023-02-24T06:00:17.434Z,20.35
2023-02-24T06:04:39.265Z,22.58
2023-02-24T06:08:49.298Z,21.20
2023-02-24T06:12:55.182Z,21.85
2023-02-24T06:17:00.917Z,26.17
2023-02-24T06:21:04.715Z,22.75
2023-02-24T06:25:09.354Z,23.65
2023-02-24T06:29:15.651Z,22.25
2023-02-24T06:33:18.771Z,23.55
2023-02-24T06:37:22.973Z,19.80
2023-02-24T06:41:29.525Z,21.63
2023-02-24T06:45:33.955Z,21.70
2023-02-24T06:49:37.710Z,21.17
2023-02-24T06:53:43.234Z,23.83
2023-02-24T06:57:46.475Z,23.77
2023-02-24T07:01:50.917Z,22.55
2023-02-24T07:06:11.069Z,22.08
2023-02-24T07:10:14.585Z,17.98
2023-02-24T07:14:17.886Z,28.17
2023-02-24T07:18:22.657Z,22.35
2023-02-24T07:22:25.939Z,24.05
2023-02-24T07:26:30.392Z,24.27
2023-02-24T07:30:34.409Z,20.00
2023-02-24T07:34:40.447Z,23.20
2023-02-24T07:38:44.157Z,20.30
2023-02-24T07:42:47.859Z,22.05
2023-02-24T07:46:52.723Z,21.98
2023-02-24T07:50:59.461Z,20.15
2023-02-24T07:55:03.014Z,20.15
2023-02-24T07:59:09.787Z,24.08
2023-02-24T08:03:13.635Z,21.98
2023-02-24T08:07:24.294Z,20.70
2023-02-24T08:11:35.645Z,22.23
2023-02-24T08:15:38.731Z,22.35
2023-02-24T08:19:42.816Z,23.50
2023-02-24T08:23:47.838Z,20.13
2023-02-24T08:28:12.526Z,21.50
2023-02-24T08:32:18.460Z,22.52
2023-02-24T08:36:26.111Z,20.63
2023-02-24T08:40:50.211Z,22.90
2023-02-24T08:44:53.829Z,19.92
2023-02-24T08:49:00.694Z,20.45
2023-02-24T08:53:03.862Z,19.65
2023-02-24T08:57:09.096Z,19.75
2023-02-24T09:01:20.106Z,19.50
2023-02-24T09:05:25.280Z,16.45
2023-02-24T09:09:28.373Z,20.98
2023-02-24T09:13:33.926Z,20.52
2023-02-24T09:17:50.104Z,20.20
2023-02-24T09:22:21.298Z,18.10
2023-02-24T09:26:24.776Z,16.33
2023-02-24T09:30:51.019Z,18.05
2023-02-24T09:34:54.377Z,18.10
2023-02-24T09:39:14.580Z,17.17
2023-02-24T09:43:21.791Z,15.70
2023-02-24T09:47:40.756Z,16.92
2023-02-24T09:51:44.473Z,16.50
2023-02-24T09:56:03.810Z,16.40
2023-02-24T10:00:25.815Z,19.13
2023-02-24T10:04:49.408Z,14.55
2023-02-24T10:08:58.447Z,12.82
2023-02-24T10:13:14.844Z,17.08
2023-02-24T10:17:30.780Z,12.75
2023-02-24T10:21:49.747Z,17.55
2023-02-24T10:25:56.606Z,13.48
2023-02-24T10:30:11.370Z,18.58
2023-02-24T10:34:21.140Z,12.63
2023-02-24T10:38:28.698Z,14.13
2023-02-24T10:42:34.490Z,13.82
2023-02-24T10:46:41.890Z,12.60
2023-02-24T10:50:55.966Z,10.32
2023-02-24T10:55:08.682Z,10.68
2023-02-24T10:59:32.963Z,10.98
2023-02-24T11:03:42.190Z,9.18
2023-02-24T11:07:53.656Z,10.38
2023-02-24T11:12:18.483Z,9.32
2023-02-24T11:16:38.776Z,8.63
2023-02-24T11:20:49.745Z,8.18
2023-02-24T11:24:54.364Z,11.02
2023-02-24T11:29:10.973Z,8.63
2023-02-24T11:33:25.478Z,7.60
2023-02-24T11:37:38.284Z,9.27
2023-02-24T11:41:46.364Z,8.05
2023-02-24T11:45:55.397Z,6.90
2023-02-24T11:50:07.176Z,7.95
2023-02-24T11:54:14.253Z,9.75
2023-02-24T11:58:24.849Z,7.35
2023-02-24T12:02:39.729Z,6.30
2023-02-24T12:06:49.307Z,5.50
2023-02-24T12:10:57.766Z,7.82
2023-02-24T12:15:04.840Z,6.80
2023-02-24T12:19:20.063Z,6.18
2023-02-24T12:23:27.181Z,5.32
2023-02-24T12:27:42.300Z,4.45
2023-02-24T12:31:54.477Z,6.68
2023-02-24T12:36:06.074Z,3.58
2023-02-24T12:40:22.569Z,3.90
2023-02-24T12:44:38.220Z,5.20
2023-02-24T12:49:00.980Z,8.57
2023-02-24T12:53:16.287Z,12.75
2023-02-24T12:57:28.093Z,11.45
2023-02-24T13:01:37.963Z,16.20
2023-02-24T13:05:47.463Z,13.88
2023-02-24T13:10:01.697Z,12.20
2023-02-24T13:14:13.514Z,12.20
2023-02-24T13:18:25.088Z,13.63
2023-02-24T13:22:31.472Z,12.43
2023-02-24T13:26:35.887Z,14.20
2023-02-24T13:30:42.066Z,12.82
2023-02-24T13:34:46.314Z,14.45
2023-02-24T13:38:51.219Z,14.23
2023-02-24T13:43:01.667Z,13.38
2023-02-24T13:47:40.466Z,14.02
2023-02-24T13:52:04.940Z,16.38
2023-02-24T13:56:23.128Z,13.57
2023-02-24T14:00:50.880Z,13.48
2023-02-24T14:04:56.726Z,12.20
2023-02-24T14:09:03.599Z,16.73
2023-02-24T14:13:09.609Z,9.02
2023-02-24T14:17:25.332Z,9.15
2023-02-24T14:21:30.772Z,12.35
2023-02-24T14:25:39.103Z,7.88
2023-02-24T14:29:44.329Z,2.55
2023-02-24T14:33:58.074Z,3.42
2023-02-24T14:38:02.329Z,2.97
2023-02-24T14:42:13.475Z,10.40
2023-02-24T14:46:17.398Z,3.72
2023-02-24T14:50:26.464Z,4.45
2023-02-24T14:54:43.090Z,4.07
2023-02-24T14:58:50.907Z,3.40
2023-02-24T15:03:03.367Z,4.57
2023-02-24T15:07:17.433Z,2.70
2023-02-24T15:11:23.834Z,3.75
2023-02-24T15:15:29.560Z,2.97
2023-02-24T15:19:36.074Z,5.75
2023-02-24T15:23:40.509Z,3.25
2023-02-24T15:27:52.352Z,3.88
2023-02-24T15:31:57.077Z,3.10
2023-02-24T15:36:01.271Z,3.83
2023-02-24T15:40:09.305Z,3.72
2023-02-24T15:44:29.408Z,2.90
2023-02-24T15:48:32.397Z,2.90
2023-02-24T15:52:37.670Z,3.67
2023-02-24T15:56:43.444Z,6.13
2023-02-24T16:00:46.880Z,5.25
2023-02-24T16:04:50.760Z,8.90
2023-02-24T16:08:57.114Z,3.63
2023-02-24T16:13:03.446Z,4.43
2023-02-24T16:17:10.049Z,3.30
2023-02-24T16:21:13.918Z,6.30
2023-02-24T16:25:17.697Z,4.65
2023-02-24T16:29:22.095Z,3.65
2023-02-24T16:33:25.246Z,6.03
2023-02-24T16:37:30.518Z,5.32
2023-02-24T16:41:33.600Z,6.57
2023-02-24T16:45:38.550Z,3.42
2023-02-24T16:49:42.388Z,5.55
2023-02-24T16:53:45.426Z,3.17
2023-02-24T16:57:48.659Z,4.72
2023-02-24T17:01:53.532Z,4.03
2023-02-24T17:05:57.800Z,4.68
2023-02-24T17:10:00.999Z,4.18
2023-02-24T17:14:04.664Z,3.53
2023-02-24T17:18:09.935Z,3.63
2023-02-24T17:22:13.025Z,4.80
2023-02-24T17:26:16.676Z,4.43
2023-02-24T17:30:23.142Z,5.80
2023-02-24T17:34:27.464Z,4.43
2023-02-24T17:38:30.552Z,6.85
2023-02-24T17:42:33.800Z,5.32
2023-02-24T17:46:37.019Z,5.60
2023-02-24T17:50:44.671Z,8.23
2023-02-24T17:54:47.730Z,5.57
2023-02-24T17:58:50.811Z,5.40
2023-02-24T18:02:54.592Z,4.28
2023-02-24T18:06:59.020Z,7.50
2023-02-24T18:11:02.386Z,5.68
2023-02-24T18:15:09.356Z,4.63
2023-02-24T18:19:12.883Z,10.30
2023-02-24T18:23:17.364Z,4.78
2023-02-24T18:27:22.333Z,7.20
2023-02-24T18:31:26.959Z,4.82
2023-02-24T18:35:31.379Z,5.97
2023-02-24T18:39:35.813Z,5.18
2023-02-24T18:43:39.524Z,7.28
2023-02-24T18:47:42.623Z,9.88
2023-02-24T18:51:48.785Z,7.57
2023-02-24T18:55:59.873Z,5.63
2023-02-24T19:00:03.834Z,8.98
2023-02-24T19:04:08.640Z,4.53
2023-02-24T19:08:11.797Z,5.32
2023-02-24T19:12:17.133Z,7.88
2023-02-24T19:16:21.288Z,5.45
2023-02-24T19:20:24.560Z,10.55
2023-02-24T19:24:28.103Z,6.60
2023-02-24T19:28:32.440Z,9.88
2023-02-24T19:32:35.623Z,7.32
2023-02-24T19:36:39.104Z,7.78
2023-02-24T19:40:42.270Z,12.20
2023-02-24T19:44:46.655Z,12.15
2023-02-24T19:48:50.011Z,8.85
2023-02-24T19:52:52.988Z,8.63
2023-02-24T19:56:57.932Z,7.40
2023-02-24T20:01:09.266Z,10.60
2023-02-24T20:05:12.425Z,9.60
2023-02-24T20:09:17.869Z,7.88
2023-02-24T20:13:20.945Z,9.38
2023-02-24T20:17:25.746Z,7.10
2023-02-24T20:21:29.342Z,8.15
2023-02-24T20:25:32.387Z,10.43
2023-02-24T20:29:36.385Z,9.77
2023-02-24T20:33:42.535Z,6.75
2023-02-24T20:37:45.601Z,6.95
2023-02-24T20:41:50.995Z,4.53
2023-02-24T20:45:54.285Z,5.43
2023-02-24T20:49:58.954Z,4.07
2023-02-24T20:54:02.095Z,3.38
2023-02-24T20:58:05.105Z,4.45
2023-02-24T21:02:09.748Z,3.75
2023-02-24T21:06:15.577Z,4.38
2023-02-24T21:10:19.444Z,2.72
2023-02-24T21:14:22.999Z,4.18
2023-02-24T21:18:26.424Z,2.95
2023-02-24T21:22:31.286Z,3.33
2023-02-24T21:26:34.330Z,5.07
2023-02-24T21:30:37.295Z,3.72
2023-02-24T21:34:40.470Z,5.15
2023-02-24T21:38:46.931Z,3.50
2023-02-24T21:42:50.024Z,3.40
2023-02-24T21:46:53.107Z,3.33
2023-02-24T21:51:00.045Z,1.95
2023-02-24T21:55:05.494Z,4.47
2023-02-24T21:59:11.293Z,2.78
2023-02-24T22:03:14.309Z,2.75
2023-02-24T22:07:17.515Z,6.90
2023-02-24T22:11:22.670Z,1.95
2023-02-24T22:15:25.753Z,3.53
2023-02-24T22:19:29.072Z,6.50
2023-02-24T22:23:32.147Z,7.57
2023-02-24T22:27:36.602Z,3.83
2023-02-24T22:31:43.554Z,4.60
2023-02-24T22:35:46.868Z,7.05
2023-02-24T22:39:49.944Z,2.20
2023-02-24T22:43:54.751Z,4.18
2023-02-24T22:47:59.427Z,3.63
2023-02-24T22:52:02.453Z,2.47
2023-02-24T23:00:35.503Z,4.95
2023-02-24T23:04:38.614Z,3.92
2023-02-24T23:08:43.668Z,4.57
2023-02-24T23:12:51.455Z,6.32
2023-02-24T23:16:56.338Z,3.03
2023-02-24T23:21:01.007Z,5.43
2023-02-24T23:25:04.041Z,6.60
2023-02-24T23:29:08.217Z,4.07
2023-02-24T23:33:12.598Z,3.00
2023-02-24T23:37:16.744Z,2.25
2023-02-24T23:41:19.928Z,2.70
2023-02-24T23:45:24.203Z,2.70
2023-02-24T23:49:42.437Z,1.88
2023-02-24T23:53:49.743Z,2.83
2023-02-24T23:57:52.748Z,2.08
